sensor_id;sensor_type;location;lat;lon;timestamp;pressure;altitude;pressure_sealevel;temperature;humidity
63281;BME280;49406;51.044;3.766;2023-02-12T00:02:18;103946.91;;;7.90;100.00
63281;BME280;49406;51.044;3.766;2023-02-12T00:04:52;103950.05;;;7.90;100.00
63281;BME280;49406;51.044;3.766;2023-02-12T00:07:30;103950.08;;;7.89;100.00
63281;BME280;49406;51.044;3.766;2023-02-12T00:10:05;103946.77;;;7.86;100.00
63281;BME280;49406;51.044;3.766;2023-02-12T00:12:40;103949.98;;;7.87;100.00
63281;BME280;49406;51.044;3.766;2023-02-12T00:15:15;103951.98;;;7.86;100.00
63281;BME280;49406;51.044;3.766;2023-02-12T00:17:49;103953.77;;;7.84;100.00
63281;BME280;49406;51.044;3.766;2023-02-12T00:20:24;103959.31;;;7.84;100.00
63281;BME280;49406;51.044;3.766;2023-02-12T00:22:59;103955.31;;;7.81;100.00
63281;BME280;49406;51.044;3.766;2023-02-12T00:25:34;103954.85;;;7.79;100.00
63281;BME280;49406;51.044;3.766;2023-02-12T00:28:09;103954.34;;;7.77;100.00
63281;BME280;49406;51.044;3.766;2023-02-12T00:30:43;103950.05;;;7.76;100.00
63281;BME280;49406;51.044;3.766;2023-02-12T00:33:18;103954.84;;;7.74;100.00
63281;BME280;49406;51.044;3.766;2023-02-12T00:35:57;103955.29;;;7.73;100.00
63281;BME280;49406;51.044;3.766;2023-02-12T00:38:32;103946.30;;;7.69;100.00
63281;BME280;49406;51.044;3.766;2023-02-12T00:41:07;103948.19;;;7.69;100.00
63281;BME280;49406;51.044;3.766;2023-02-12T00:43:41;103959.19;;;7.67;100.00
63281;BME280;49406;51.044;3.766;2023-02-12T00:46:16;103957.14;;;7.65;100.00
63281;BME280;49406;51.044;3.766;2023-02-12T00:48:51;103956.67;;;7.66;100.00
63281;BME280;49406;51.044;3.766;2023-02-12T00:51:25;103958.37;;;7.65;100.00
63281;BME280;49406;51.044;3.766;2023-02-12T00:54:00;103959.39;;;7.65;100.00
63281;BME280;49406;51.044;3.766;2023-02-12T00:56:35;103960.09;;;7.65;100.00
63281;BME280;49406;51.044;3.766;2023-02-12T00:59:09;103960.76;;;7.64;100.00
63281;BME280;49406;51.044;3.766;2023-02-12T01:01:44;103959.88;;;7.64;100.00
63281;BME280;49406;51.044;3.766;2023-02-12T01:04:19;103964.39;;;7.64;100.00
63281;BME280;49406;51.044;3.766;2023-02-12T01:06:54;103960.67;;;7.63;100.00
63281;BME280;49406;51.044;3.766;2023-02-12T01:09:29;103957.11;;;7.62;100.00
63281;BME280;49406;51.044;3.766;2023-02-12T01:12:04;103960.12;;;7.60;100.00
63281;BME280;49406;51.044;3.766;2023-02-12T01:14:39;103958.11;;;7.59;100.00
63281;BME280;49406;51.044;3.766;2023-02-12T01:17:13;103955.27;;;7.56;100.00
63281;BME280;49406;51.044;3.766;2023-02-12T01:19:48;103958.87;;;7.55;100.00
63281;BME280;49406;51.044;3.766;2023-02-12T01:22:23;103955.59;;;7.53;100.00
63281;BME280;49406;51.044;3.766;2023-02-12T01:24:58;103958.98;;;7.49;100.00
63281;BME280;49406;51.044;3.766;2023-02-12T01:27:32;103963.05;;;7.50;100.00
63281;BME280;49406;51.044;3.766;2023-02-12T01:30:11;103962.28;;;7.49;100.00
63281;BME280;49406;51.044;3.766;2023-02-12T01:32:46;103960.38;;;7.46;100.00
63281;BME280;49406;51.044;3.766;2023-02-12T01:35:21;103963.83;;;7.46;100.00
63281;BME280;49406;51.044;3.766;2023-02-12T01:37:56;103956.58;;;7.44;100.00
63281;BME280;49406;51.044;3.766;2023-02-12T01:40:31;103952.96;;;7.47;100.00
63281;BME280;49406;51.044;3.766;2023-02-12T01:43:10;103949.15;;;7.55;100.00
63281;BME280;49406;51.044;3.766;2023-02-12T01:45:50;103948.17;;;7.59;100.00
63281;BME280;49406;51.044;3.766;2023-02-12T01:48:29;103955.58;;;7.60;100.00
63281;BME280;49406;51.044;3.766;2023-02-12T01:51:08;103959.95;;;7.58;100.00
63281;BME280;49406;51.044;3.766;2023-02-12T01:53:46;103957.20;;;7.56;100.00
63281;BME280;49406;51.044;3.766;2023-02-12T01:56:20;103957.80;;;7.55;100.00
63281;BME280;49406;51.044;3.766;2023-02-12T01:58:56;103951.45;;;7.53;100.00
63281;BME280;49406;51.044;3.766;2023-02-12T02:01:32;103955.30;;;7.53;100.00
63281;BME280;49406;51.044;3.766;2023-02-12T02:04:09;103949.41;;;7.49;100.00
63281;BME280;49406;51.044;3.766;2023-02-12T02:06:49;103955.50;;;7.51;100.00
63281;BME280;49406;51.044;3.766;2023-02-12T02:09:27;103950.46;;;7.49;100.00
63281;BME280;49406;51.044;3.766;2023-02-12T02:12:02;103950.23;;;7.46;100.00
63281;BME280;49406;51.044;3.766;2023-02-12T02:14:56;103945.70;;;7.43;100.00
63281;BME280;49406;51.044;3.766;2023-02-12T02:17:49;103942.51;;;7.37;100.00
63281;BME280;49406;51.044;3.766;2023-02-12T02:20:50;103944.84;;;7.39;100.00
63281;BME280;49406;51.044;3.766;2023-02-12T02:23:51;103949.58;;;7.41;100.00
63281;BME280;49406;51.044;3.766;2023-02-12T02:26:56;103947.95;;;7.43;100.00
63281;BME280;49406;51.044;3.766;2023-02-12T02:32:43;103935.33;;;7.42;100.00
63281;BME280;49406;51.044;3.766;2023-02-12T02:35:27;103939.98;;;7.41;100.00
63281;BME280;49406;51.044;3.766;2023-02-12T02:38:19;103944.38;;;7.37;100.00
63281;BME280;49406;51.044;3.766;2023-02-12T02:41:03;103944.33;;;7.31;100.00
63281;BME280;49406;51.044;3.766;2023-02-12T02:43:45;103948.65;;;7.28;100.00
63281;BME280;49406;51.044;3.766;2023-02-12T02:46:26;103943.90;;;7.30;100.00
63281;BME280;49406;51.044;3.766;2023-02-12T02:49:06;103940.09;;;7.30;100.00
63281;BME280;49406;51.044;3.766;2023-02-12T02:51:46;103937.09;;;7.30;100.00
63281;BME280;49406;51.044;3.766;2023-02-12T02:54:26;103933.64;;;7.28;100.00
63281;BME280;49406;51.044;3.766;2023-02-12T02:57:09;103937.41;;;7.29;100.00
63281;BME280;49406;51.044;3.766;2023-02-12T02:59:48;103938.99;;;7.27;100.00
63281;BME280;49406;51.044;3.766;2023-02-12T03:02:29;103938.11;;;7.25;100.00
63281;BME280;49406;51.044;3.766;2023-02-12T03:05:09;103941.23;;;7.24;100.00
63281;BME280;49406;51.044;3.766;2023-02-12T03:07:51;103932.99;;;7.23;100.00
63281;BME280;49406;51.044;3.766;2023-02-12T03:10:30;103934.28;;;7.25;100.00
63281;BME280;49406;51.044;3.766;2023-02-12T03:13:08;103932.80;;;7.23;100.00
63281;BME280;49406;51.044;3.766;2023-02-12T03:15:47;103932.15;;;7.22;100.00
63281;BME280;49406;51.044;3.766;2023-02-12T03:18:27;103935.54;;;7.20;100.00
63281;BME280;49406;51.044;3.766;2023-02-12T03:21:02;103934.43;;;7.20;100.00
63281;BME280;49406;51.044;3.766;2023-02-12T03:23:41;103931.34;;;7.20;100.00
63281;BME280;49406;51.044;3.766;2023-02-12T03:26:21;103932.65;;;7.23;100.00
63281;BME280;49406;51.044;3.766;2023-02-12T03:28:59;103931.48;;;7.24;100.00
63281;BME280;49406;51.044;3.766;2023-02-12T03:31:39;103932.06;;;7.23;100.00
63281;BME280;49406;51.044;3.766;2023-02-12T03:34:22;103938.52;;;7.21;100.00
63281;BME280;49406;51.044;3.766;2023-02-12T03:37:01;103937.64;;;7.18;100.00
63281;BME280;49406;51.044;3.766;2023-02-12T03:39:48;103940.30;;;7.16;100.00
63281;BME280;49406;51.044;3.766;2023-02-12T03:42:33;103936.86;;;7.14;100.00
63281;BME280;49406;51.044;3.766;2023-02-12T03:45:15;103935.52;;;7.13;100.00
63281;BME280;49406;51.044;3.766;2023-02-12T03:47:58;103937.17;;;7.12;100.00
63281;BME280;49406;51.044;3.766;2023-02-12T03:50:38;103935.67;;;7.12;100.00
63281;BME280;49406;51.044;3.766;2023-02-12T03:53:15;103928.88;;;7.12;100.00
63281;BME280;49406;51.044;3.766;2023-02-12T03:55:53;103933.20;;;7.12;100.00
63281;BME280;49406;51.044;3.766;2023-02-12T03:58:33;103930.21;;;7.14;100.00
63281;BME280;49406;51.044;3.766;2023-02-12T04:01:08;103925.30;;;7.11;100.00
63281;BME280;49406;51.044;3.766;2023-02-12T04:03:44;103933.39;;;7.15;100.00
63281;BME280;49406;51.044;3.766;2023-02-12T04:06:22;103932.02;;;7.15;100.00
63281;BME280;49406;51.044;3.766;2023-02-12T04:09:00;103931.60;;;7.17;100.00
63281;BME280;49406;51.044;3.766;2023-02-12T04:11:35;103929.44;;;7.18;100.00
63281;BME280;49406;51.044;3.766;2023-02-12T04:14:23;103938.85;;;7.21;100.00
63281;BME280;49406;51.044;3.766;2023-02-12T04:17:08;103943.63;;;7.19;100.00
63281;BME280;49406;51.044;3.766;2023-02-12T04:19:49;103944.13;;;7.19;100.00
63281;BME280;49406;51.044;3.766;2023-02-12T04:22:35;103943.90;;;7.18;100.00
63281;BME280;49406;51.044;3.766;2023-02-12T04:25:24;103945.20;;;7.17;100.00
63281;BME280;49406;51.044;3.766;2023-02-12T04:28:12;103944.39;;;7.15;100.00
63281;BME280;49406;51.044;3.766;2023-02-12T04:30:57;103941.69;;;7.16;100.00
63281;BME280;49406;51.044;3.766;2023-02-12T04:33:37;103944.58;;;7.18;100.00
63281;BME280;49406;51.044;3.766;2023-02-12T04:36:17;103944.94;;;7.18;100.00
63281;BME280;49406;51.044;3.766;2023-02-12T04:38:56;103944.92;;;7.18;100.00
63281;BME280;49406;51.044;3.766;2023-02-12T04:41:32;103946.02;;;7.19;100.00
63281;BME280;49406;51.044;3.766;2023-02-12T04:44:18;103945.41;;;7.27;100.00
63281;BME280;49406;51.044;3.766;2023-02-12T04:46:55;103949.27;;;7.35;100.00
63281;BME280;49406;51.044;3.766;2023-02-12T04:49:31;103954.06;;;7.43;100.00
63281;BME280;49406;51.044;3.766;2023-02-12T04:52:06;103957.95;;;7.49;100.00
63281;BME280;49406;51.044;3.766;2023-02-12T04:54:41;103950.94;;;7.43;100.00
63281;BME280;49406;51.044;3.766;2023-02-12T04:57:15;103953.95;;;7.42;100.00
63281;BME280;49406;51.044;3.766;2023-02-12T04:59:50;103951.56;;;7.35;100.00
63281;BME280;49406;51.044;3.766;2023-02-12T05:02:25;103951.98;;;7.31;100.00
63281;BME280;49406;51.044;3.766;2023-02-12T05:04:59;103953.74;;;7.27;100.00
63281;BME280;49406;51.044;3.766;2023-02-12T05:07:34;103950.57;;;7.21;100.00
63281;BME280;49406;51.044;3.766;2023-02-12T05:10:10;103950.16;;;7.16;100.00
63281;BME280;49406;51.044;3.766;2023-02-12T05:12:45;103948.02;;;7.20;100.00
63281;BME280;49406;51.044;3.766;2023-02-12T05:15:20;103950.02;;;7.19;100.00
63281;BME280;49406;51.044;3.766;2023-02-12T05:17:55;103949.36;;;7.17;100.00
63281;BME280;49406;51.044;3.766;2023-02-12T05:20:30;103948.41;;;7.16;100.00
63281;BME280;49406;51.044;3.766;2023-02-12T05:23:04;103945.61;;;7.13;100.00
63281;BME280;49406;51.044;3.766;2023-02-12T05:25:39;103947.45;;;7.12;100.00
63281;BME280;49406;51.044;3.766;2023-02-12T05:28:14;103946.09;;;7.10;100.00
63281;BME280;49406;51.044;3.766;2023-02-12T05:30:48;103947.88;;;7.08;100.00
63281;BME280;49406;51.044;3.766;2023-02-12T05:33:23;103946.28;;;7.05;100.00
63281;BME280;49406;51.044;3.766;2023-02-12T05:36:03;103949.02;;;7.05;100.00
63281;BME280;49406;51.044;3.766;2023-02-12T05:38:39;103949.97;;;7.04;100.00
63281;BME280;49406;51.044;3.766;2023-02-12T05:41:15;103945.73;;;7.03;100.00
63281;BME280;49406;51.044;3.766;2023-02-12T05:43:51;103946.55;;;7.02;100.00
63281;BME280;49406;51.044;3.766;2023-02-12T05:46:25;103942.86;;;7.01;100.00
63281;BME280;49406;51.044;3.766;2023-02-12T05:49:00;103948.15;;;7.00;100.00
63281;BME280;49406;51.044;3.766;2023-02-12T05:51:35;103952.16;;;6.98;100.00
63281;BME280;49406;51.044;3.766;2023-02-12T05:54:10;103955.89;;;6.97;100.00
63281;BME280;49406;51.044;3.766;2023-02-12T05:56:46;103957.34;;;6.94;100.00
63281;BME280;49406;51.044;3.766;2023-02-12T05:59:23;103951.66;;;6.90;100.00
63281;BME280;49406;51.044;3.766;2023-02-12T06:01:57;103956.16;;;6.95;100.00
63281;BME280;49406;51.044;3.766;2023-02-12T06:04:32;103955.66;;;6.95;100.00
63281;BME280;49406;51.044;3.766;2023-02-12T06:07:07;103958.94;;;6.95;100.00
63281;BME280;49406;51.044;3.766;2023-02-12T06:09:41;103959.80;;;6.95;100.00
63281;BME280;49406;51.044;3.766;2023-02-12T06:12:16;103958.34;;;6.94;100.00
63281;BME280;49406;51.044;3.766;2023-02-12T06:14:51;103956.48;;;6.92;100.00
63281;BME280;49406;51.044;3.766;2023-02-12T06:17:26;103952.67;;;6.90;100.00
63281;BME280;49406;51.044;3.766;2023-02-12T06:20:00;103956.48;;;6.90;100.00
63281;BME280;49406;51.044;3.766;2023-02-12T06:22:35;103958.83;;;6.86;100.00
63281;BME280;49406;51.044;3.766;2023-02-12T06:25:10;103954.60;;;6.86;100.00
63281;BME280;49406;51.044;3.766;2023-02-12T06:27:45;103956.29;;;6.85;100.00
63281;BME280;49406;51.044;3.766;2023-02-12T06:30:20;103953.69;;;6.83;100.00
63281;BME280;49406;51.044;3.766;2023-02-12T06:32:55;103959.20;;;6.82;100.00
63281;BME280;49406;51.044;3.766;2023-02-12T06:35:30;103960.70;;;6.83;100.00
63281;BME280;49406;51.044;3.766;2023-02-12T06:38:05;103960.85;;;6.85;100.00
63281;BME280;49406;51.044;3.766;2023-02-12T06:40:40;103959.73;;;6.87;100.00
63281;BME280;49406;51.044;3.766;2023-02-12T06:43:14;103960.52;;;6.88;100.00
63281;BME280;49406;51.044;3.766;2023-02-12T06:45:49;103970.11;;;6.88;100.00
63281;BME280;49406;51.044;3.766;2023-02-12T06:48:24;103969.89;;;6.88;100.00
63281;BME280;49406;51.044;3.766;2023-02-12T06:51:04;103961.56;;;6.88;100.00
63281;BME280;49406;51.044;3.766;2023-02-12T06:53:39;103961.21;;;6.90;100.00
63281;BME280;49406;51.044;3.766;2023-02-12T06:56:14;103964.86;;;6.90;100.00
63281;BME280;49406;51.044;3.766;2023-02-12T06:58:53;103967.98;;;6.90;100.00
63281;BME280;49406;51.044;3.766;2023-02-12T07:01:29;103969.80;;;6.91;100.00
63281;BME280;49406;51.044;3.766;2023-02-12T07:04:04;103970.64;;;6.91;100.00
63281;BME280;49406;51.044;3.766;2023-02-12T07:06:39;103977.86;;;6.89;100.00
63281;BME280;49406;51.044;3.766;2023-02-12T07:09:13;103985.91;;;6.88;100.00
63281;BME280;49406;51.044;3.766;2023-02-12T07:11:48;103994.90;;;6.87;100.00
63281;BME280;49406;51.044;3.766;2023-02-12T07:14:24;103989.27;;;6.84;100.00
63281;BME280;49406;51.044;3.766;2023-02-12T07:17:00;103987.70;;;6.86;100.00
63281;BME280;49406;51.044;3.766;2023-02-12T07:19:37;103992.34;;;6.88;100.00
63281;BME280;49406;51.044;3.766;2023-02-12T07:22:12;103998.26;;;6.88;100.00
63281;BME280;49406;51.044;3.766;2023-02-12T07:24:47;104002.04;;;6.87;100.00
63281;BME280;49406;51.044;3.766;2023-02-12T07:27:21;104004.11;;;6.87;100.00
63281;BME280;49406;51.044;3.766;2023-02-12T07:29:56;104004.41;;;6.84;100.00
63281;BME280;49406;51.044;3.766;2023-02-12T07:32:32;104010.66;;;6.86;100.00
63281;BME280;49406;51.044;3.766;2023-02-12T07:35:08;104012.64;;;6.85;100.00
63281;BME280;49406;51.044;3.766;2023-02-12T07:37:42;104016.96;;;6.87;100.00
63281;BME280;49406;51.044;3.766;2023-02-12T07:40:18;104017.61;;;6.86;100.00
63281;BME280;49406;51.044;3.766;2023-02-12T07:42:56;104021.73;;;6.85;100.00
63281;BME280;49406;51.044;3.766;2023-02-12T07:45:30;104019.88;;;6.86;100.00
63281;BME280;49406;51.044;3.766;2023-02-12T07:48:05;104022.83;;;6.86;100.00
63281;BME280;49406;51.044;3.766;2023-02-12T07:50:40;104022.60;;;6.85;100.00
63281;BME280;49406;51.044;3.766;2023-02-12T07:53:14;104025.34;;;6.87;100.00
63281;BME280;49406;51.044;3.766;2023-02-12T07:55:49;104023.28;;;6.89;100.00
63281;BME280;49406;51.044;3.766;2023-02-12T07:58:24;104024.66;;;6.92;100.00
63281;BME280;49406;51.044;3.766;2023-02-12T08:00:58;104023.48;;;6.95;100.00
63281;BME280;49406;51.044;3.766;2023-02-12T08:03:33;104020.02;;;6.95;100.00
63281;BME280;49406;51.044;3.766;2023-02-12T08:06:10;104027.59;;;6.99;100.00
63281;BME280;49406;51.044;3.766;2023-02-12T08:08:45;104028.04;;;7.01;100.00
63281;BME280;49406;51.044;3.766;2023-02-12T08:11:20;104027.92;;;7.04;100.00
63281;BME280;49406;51.044;3.766;2023-02-12T08:13:55;104023.81;;;7.07;100.00
63281;BME280;49406;51.044;3.766;2023-02-12T08:16:30;104029.12;;;7.10;100.00
63281;BME280;49406;51.044;3.766;2023-02-12T08:19:05;104027.20;;;7.13;100.00
63281;BME280;49406;51.044;3.766;2023-02-12T08:21:40;104031.86;;;7.17;100.00
63281;BME280;49406;51.044;3.766;2023-02-12T08:24:15;104027.95;;;7.18;100.00
63281;BME280;49406;51.044;3.766;2023-02-12T08:26:50;104024.99;;;7.20;100.00
63281;BME280;49406;51.044;3.766;2023-02-12T08:29:27;104029.70;;;7.25;99.48
63281;BME280;49406;51.044;3.766;2023-02-12T08:32:03;104033.58;;;7.31;99.49
63281;BME280;49406;51.044;3.766;2023-02-12T08:34:42;104038.95;;;7.33;98.14
63281;BME280;49406;51.044;3.766;2023-02-12T08:37:17;104037.43;;;7.36;98.82
63281;BME280;49406;51.044;3.766;2023-02-12T08:39:52;104037.13;;;7.39;97.69
63281;BME280;49406;51.044;3.766;2023-02-12T08:42:26;104041.38;;;7.45;97.07
63281;BME280;49406;51.044;3.766;2023-02-12T08:45:01;104044.40;;;7.50;97.48
63281;BME280;49406;51.044;3.766;2023-02-12T08:47:36;104043.52;;;7.55;96.68
63281;BME280;49406;51.044;3.766;2023-02-12T08:50:11;104049.55;;;7.59;94.51
63281;BME280;49406;51.044;3.766;2023-02-12T08:52:46;104046.84;;;7.63;94.28
63281;BME280;49406;51.044;3.766;2023-02-12T08:55:20;104043.81;;;7.67;94.73
63281;BME280;49406;51.044;3.766;2023-02-12T08:57:55;104045.34;;;7.73;95.73
63281;BME280;49406;51.044;3.766;2023-02-12T09:00:30;104045.08;;;7.82;95.33
63281;BME280;49406;51.044;3.766;2023-02-12T09:03:05;104047.73;;;7.88;94.75
63281;BME280;49406;51.044;3.766;2023-02-12T09:05:42;104045.80;;;7.92;93.42
63281;BME280;49406;51.044;3.766;2023-02-12T09:08:17;104043.56;;;7.95;92.90
63281;BME280;49406;51.044;3.766;2023-02-12T09:10:52;104039.87;;;7.99;93.28
63281;BME280;49406;51.044;3.766;2023-02-12T09:13:26;104041.55;;;8.06;93.36
63281;BME280;49406;51.044;3.766;2023-02-12T09:16:03;104033.91;;;8.09;93.81
63281;BME280;49406;51.044;3.766;2023-02-12T09:18:38;104039.69;;;8.20;92.92
63281;BME280;49406;51.044;3.766;2023-02-12T09:21:14;104037.09;;;8.23;90.71
63281;BME280;49406;51.044;3.766;2023-02-12T09:23:49;104039.17;;;8.25;89.73
63281;BME280;49406;51.044;3.766;2023-02-12T09:26:25;104042.58;;;8.26;87.25
63281;BME280;49406;51.044;3.766;2023-02-12T09:29:02;104040.91;;;8.30;87.35
63281;BME280;49406;51.044;3.766;2023-02-12T09:31:37;104045.98;;;8.32;87.90
63281;BME280;49406;51.044;3.766;2023-02-12T09:34:12;104049.90;;;8.38;87.41
63281;BME280;49406;51.044;3.766;2023-02-12T09:36:47;104043.79;;;8.38;87.00
63281;BME280;49406;51.044;3.766;2023-02-12T09:39:21;104052.57;;;8.44;86.38
63281;BME280;49406;51.044;3.766;2023-02-12T09:42:19;104049.41;;;8.44;85.71
63281;BME280;49406;51.044;3.766;2023-02-12T09:45:05;104054.54;;;8.47;83.69
63281;BME280;49406;51.044;3.766;2023-02-12T09:47:45;104048.56;;;8.47;82.81
63281;BME280;49406;51.044;3.766;2023-02-12T09:50:28;104042.91;;;8.48;83.54
63281;BME280;49406;51.044;3.766;2023-02-12T09:53:07;104050.61;;;8.56;83.59
63281;BME280;49406;51.044;3.766;2023-02-12T09:55:45;104048.72;;;8.57;80.10
63281;BME280;49406;51.044;3.766;2023-02-12T09:58:30;104050.85;;;8.55;80.87
63281;BME280;49406;51.044;3.766;2023-02-12T10:01:11;104047.59;;;8.53;81.39
63281;BME280;49406;51.044;3.766;2023-02-12T10:03:48;104049.80;;;8.62;83.15
63281;BME280;49406;51.044;3.766;2023-02-12T10:06:27;104056.06;;;8.70;80.88
63281;BME280;49406;51.044;3.766;2023-02-12T10:09:19;104053.33;;;8.76;81.99
63281;BME280;49406;51.044;3.766;2023-02-12T10:12:05;104052.33;;;8.85;82.35
63281;BME280;49406;51.044;3.766;2023-02-12T10:15:03;104052.27;;;8.94;82.69
63281;BME280;49406;51.044;3.766;2023-02-12T10:17:45;104061.69;;;9.10;80.10
63281;BME280;49406;51.044;3.766;2023-02-12T10:20:41;104057.60;;;9.11;80.40
63281;BME280;49406;51.044;3.766;2023-02-12T10:23:40;104054.73;;;9.18;80.94
63281;BME280;49406;51.044;3.766;2023-02-12T10:26:22;104050.71;;;9.26;80.05
63281;BME280;49406;51.044;3.766;2023-02-12T10:29:08;104048.81;;;9.32;79.56
63281;BME280;49406;51.044;3.766;2023-02-12T10:31:47;104049.11;;;9.33;79.77
63281;BME280;49406;51.044;3.766;2023-02-12T10:34:25;104053.05;;;9.41;80.32
63281;BME280;49406;51.044;3.766;2023-02-12T10:37:04;104052.64;;;9.51;79.17
63281;BME280;49406;51.044;3.766;2023-02-12T10:39:47;104055.92;;;9.56;78.78
63281;BME280;49406;51.044;3.766;2023-02-12T10:42:29;104054.65;;;9.58;78.13
63281;BME280;49406;51.044;3.766;2023-02-12T10:45:14;104051.95;;;9.57;76.51
63281;BME280;49406;51.044;3.766;2023-02-12T10:47:53;104051.77;;;9.57;77.09
63281;BME280;49406;51.044;3.766;2023-02-12T10:50:43;104051.98;;;9.62;78.50
63281;BME280;49406;51.044;3.766;2023-02-12T10:53:23;104050.49;;;9.78;78.31
63281;BME280;49406;51.044;3.766;2023-02-12T10:56:12;104047.38;;;9.89;78.06
63281;BME280;49406;51.044;3.766;2023-02-12T10:58:55;104045.80;;;9.91;76.47
63281;BME280;49406;51.044;3.766;2023-02-12T11:01:34;104045.45;;;9.81;74.79
63281;BME280;49406;51.044;3.766;2023-02-12T11:04:23;104047.09;;;9.76;75.97
63281;BME280;49406;51.044;3.766;2023-02-12T11:07:02;104041.59;;;9.77;76.71
63281;BME280;49406;51.044;3.766;2023-02-12T11:09:38;104039.91;;;9.79;76.81
63281;BME280;49406;51.044;3.766;2023-02-12T11:12:31;104036.75;;;9.87;77.07
63281;BME280;49406;51.044;3.766;2023-02-12T11:15:15;104031.27;;;9.97;77.33
63281;BME280;49406;51.044;3.766;2023-02-12T11:17:59;104030.06;;;10.04;75.51
63281;BME280;49406;51.044;3.766;2023-02-12T11:20:37;104027.48;;;10.07;76.39
63281;BME280;49406;51.044;3.766;2023-02-12T11:23:26;104022.42;;;10.16;76.50
63281;BME280;49406;51.044;3.766;2023-02-12T11:26:04;104021.86;;;10.29;76.47
63281;BME280;49406;51.044;3.766;2023-02-12T11:28:39;104018.73;;;10.41;74.78
63281;BME280;49406;51.044;3.766;2023-02-12T11:31:27;104014.71;;;10.44;75.39
63281;BME280;49406;51.044;3.766;2023-02-12T11:34:13;104019.09;;;10.44;74.79
63281;BME280;49406;51.044;3.766;2023-02-12T11:36:50;104020.42;;;10.49;75.57
63281;BME280;49406;51.044;3.766;2023-02-12T11:39:28;104020.35;;;10.53;73.63
63281;BME280;49406;51.044;3.766;2023-02-12T11:42:13;104016.34;;;10.47;73.56
63281;BME280;49406;51.044;3.766;2023-02-12T11:44:51;104014.95;;;10.36;72.31
63281;BME280;49406;51.044;3.766;2023-02-12T11:47:29;104014.68;;;10.21;73.44
63281;BME280;49406;51.044;3.766;2023-02-12T11:50:14;104010.52;;;10.26;74.67
63281;BME280;49406;51.044;3.766;2023-02-12T11:52:53;104007.16;;;10.32;74.03
63281;BME280;49406;51.044;3.766;2023-02-12T11:55:31;104008.17;;;10.37;73.62
63281;BME280;49406;51.044;3.766;2023-02-12T11:58:14;104003.79;;;10.34;72.91
63281;BME280;49406;51.044;3.766;2023-02-12T12:00:55;103997.36;;;10.35;74.99
63281;BME280;49406;51.044;3.766;2023-02-12T12:03:37;103994.43;;;10.44;73.28
63281;BME280;49406;51.044;3.766;2023-02-12T12:06:29;103998.58;;;10.49;72.49
63281;BME280;49406;51.044;3.766;2023-02-12T12:09:06;103996.09;;;10.45;71.93
63281;BME280;49406;51.044;3.766;2023-02-12T12:11:49;103990.81;;;10.48;73.02
63281;BME280;49406;51.044;3.766;2023-02-12T12:14:30;103985.89;;;10.54;72.79
63281;BME280;49406;51.044;3.766;2023-02-12T12:17:05;103986.63;;;10.60;72.65
63281;BME280;49406;51.044;3.766;2023-02-12T12:20:06;103980.23;;;10.62;71.72
63281;BME280;49406;51.044;3.766;2023-02-12T12:22:48;103980.81;;;10.60;71.41
63281;BME280;49406;51.044;3.766;2023-02-12T12:25:27;103976.73;;;10.52;72.59
63281;BME280;49406;51.044;3.766;2023-02-12T12:28:13;103977.34;;;10.57;72.03
63281;BME280;49406;51.044;3.766;2023-02-12T12:31:04;103972.01;;;10.62;72.11
63281;BME280;49406;51.044;3.766;2023-02-12T12:33:45;103966.49;;;10.54;70.63
63281;BME280;49406;51.044;3.766;2023-02-12T12:36:38;103965.48;;;10.52;70.91
63281;BME280;49406;51.044;3.766;2023-02-12T12:39:27;103957.55;;;10.58;70.87
63281;BME280;49406;51.044;3.766;2023-02-12T12:45:55;103948.34;;;10.79;71.54
63281;BME280;49406;51.044;3.766;2023-02-12T12:48:53;103937.75;;;10.84;69.93
63281;BME280;49406;51.044;3.766;2023-02-12T12:51:42;103938.98;;;10.87;70.87
63281;BME280;49406;51.044;3.766;2023-02-12T12:54:31;103942.08;;;10.98;71.25
63281;BME280;49406;51.044;3.766;2023-02-12T12:57:19;103939.82;;;11.08;70.71
63281;BME280;49406;51.044;3.766;2023-02-12T13:00:23;103940.66;;;11.10;71.01
63281;BME280;49406;51.044;3.766;2023-02-12T13:03:34;103927.98;;;11.23;71.68
63281;BME280;49406;51.044;3.766;2023-02-12T13:06:28;103929.58;;;11.39;69.88
63281;BME280;49406;51.044;3.766;2023-02-12T13:09:17;103931.66;;;11.23;68.40
63281;BME280;49406;51.044;3.766;2023-02-12T13:12:07;103924.30;;;11.00;68.49
63281;BME280;49406;51.044;3.766;2023-02-12T13:14:50;103917.56;;;10.86;70.52
63281;BME280;49406;51.044;3.766;2023-02-12T13:17:31;103914.59;;;10.86;70.71
63281;BME280;49406;51.044;3.766;2023-02-12T13:20:09;103913.16;;;10.89;71.17
63281;BME280;49406;51.044;3.766;2023-02-12T13:22:53;103910.98;;;10.91;70.32
63281;BME280;49406;51.044;3.766;2023-02-12T13:25:33;103909.82;;;10.94;71.85
63281;BME280;49406;51.044;3.766;2023-02-12T13:28:18;103906.73;;;10.89;70.74
63281;BME280;49406;51.044;3.766;2023-02-12T13:30:56;103905.55;;;10.84;71.55
63281;BME280;49406;51.044;3.766;2023-02-12T13:33:40;103901.14;;;10.83;71.54
63281;BME280;49406;51.044;3.766;2023-02-12T13:36:15;103898.02;;;10.68;70.29
63281;BME280;49406;51.044;3.766;2023-02-12T13:38:54;103891.59;;;10.60;71.96
63281;BME280;49406;51.044;3.766;2023-02-12T13:41:28;103893.30;;;10.72;72.75
63281;BME280;49406;51.044;3.766;2023-02-12T13:44:09;103890.64;;;10.77;72.22
63281;BME280;49406;51.044;3.766;2023-02-12T13:46:54;103888.70;;;10.71;71.50
63281;BME280;49406;51.044;3.766;2023-02-12T13:49:40;103891.66;;;10.64;71.32
63281;BME280;49406;51.044;3.766;2023-02-12T13:52:25;103893.00;;;10.60;71.79
63281;BME280;49406;51.044;3.766;2023-02-12T13:55:22;103888.43;;;10.63;72.57
63281;BME280;49406;51.044;3.766;2023-02-12T14:01:11;103888.77;;;10.78;72.70
63281;BME280;49406;51.044;3.766;2023-02-12T14:03:47;103882.26;;;10.81;72.13
63281;BME280;49406;51.044;3.766;2023-02-12T14:06:22;103881.42;;;10.75;71.64